Ayrshire, Indiana
Current Conditions -  °F | °C
As of 1:15 PM on Saturday 20 Dec 2014 (Local Time) from KHNB Reporting Station
Overcast Overcast  
Wind Chill: 32°   Ceiling: 6500
Heat Index: 36°   Visibility: 8mi
Dew Point: 25°   Wind: 5mph
Humidity: 65%   Direction: 320°NW
Pressure: 30.27"   Gusts: NA
Location:  38.3488°N, 87.2217°W
Report Text: KHNB 201915Z AUTO 32004KT 8SM SCT021 OVC065 02/M04 A3027 RMK AO1
Loading
Personal Weather Stations






























Interactive Weather Map New forecast layout! Learn more

10-Day Weather Forecast

Advertisements
Track Severe Weather on mobile